sensor_id;sensor_type;location;lat;lon;timestamp;P1;durP1;ratioP1;P2;durP2;ratioP2
54923;SDS011;40825;52.270;20.984;2023-11-21T00:01:37;23.10;;;10.60;;
54923;SDS011;40825;52.270;20.984;2023-11-21T00:04:20;22.60;;;10.90;;
54923;SDS011;40825;52.270;20.984;2023-11-21T00:06:51;28.40;;;13.50;;
54923;SDS011;40825;52.270;20.984;2023-11-21T00:09:28;21.80;;;10.70;;
54923;SDS011;40825;52.270;20.984;2023-11-21T00:12:34;21.00;;;10.60;;
54923;SDS011;40825;52.270;20.984;2023-11-21T00:15:05;19.00;;;8.40;;
54923;SDS011;40825;52.270;20.984;2023-11-21T00:17:37;21.60;;;9.80;;
54923;SDS011;40825;52.270;20.984;2023-11-21T00:20:15;23.50;;;10.70;;
54923;SDS011;40825;52.270;20.984;2023-11-21T00:22:46;24.40;;;11.00;;
54923;SDS011;40825;52.270;20.984;2023-11-21T00:25:22;24.20;;;11.60;;
54923;SDS011;40825;52.270;20.984;2023-11-21T00:27:48;26.40;;;11.40;;
54923;SDS011;40825;52.270;20.984;2023-11-21T00:30:21;23.00;;;10.90;;
54923;SDS011;40825;52.270;20.984;2023-11-21T00:33:01;23.40;;;12.30;;
54923;SDS011;40825;52.270;20.984;2023-11-21T00:35:33;26.00;;;11.20;;
54923;SDS011;40825;52.270;20.984;2023-11-21T00:38:24;25.70;;;11.40;;
54923;SDS011;40825;52.270;20.984;2023-11-21T00:41:14;25.40;;;11.80;;
54923;SDS011;40825;52.270;20.984;2023-11-21T00:43:50;26.90;;;12.70;;
54923;SDS011;40825;52.270;20.984;2023-11-21T00:46:19;27.10;;;14.30;;
54923;SDS011;40825;52.270;20.984;2023-11-21T00:49:08;22.90;;;11.50;;
54923;SDS011;40825;52.270;20.984;2023-11-21T00:54:47;24.30;;;10.50;;
54923;SDS011;40825;52.270;20.984;2023-11-21T00:57:36;27.10;;;12.80;;
54923;SDS011;40825;52.270;20.984;2023-11-21T01:00:29;19.90;;;10.40;;
54923;SDS011;40825;52.270;20.984;2023-11-21T01:03:28;25.00;;;13.60;;
54923;SDS011;40825;52.270;20.984;2023-11-21T01:06:30;27.80;;;10.90;;
54923;SDS011;40825;52.270;20.984;2023-11-21T01:08:56;23.00;;;10.90;;
54923;SDS011;40825;52.270;20.984;2023-11-21T01:11:25;23.50;;;11.60;;
54923;SDS011;40825;52.270;20.984;2023-11-21T01:14:45;23.30;;;12.20;;
54923;SDS011;40825;52.270;20.984;2023-11-21T01:27:10;30.70;;;14.20;;
54923;SDS011;40825;52.270;20.984;2023-11-21T01:29:39;26.60;;;11.90;;
54923;SDS011;40825;52.270;20.984;2023-11-21T01:32:18;23.70;;;12.20;;
54923;SDS011;40825;52.270;20.984;2023-11-21T01:35:21;26.70;;;12.80;;
54923;SDS011;40825;52.270;20.984;2023-11-21T01:37:47;24.00;;;12.80;;
54923;SDS011;40825;52.270;20.984;2023-11-21T01:40:18;27.00;;;12.60;;
54923;SDS011;40825;52.270;20.984;2023-11-21T01:42:50;21.00;;;10.30;;
54923;SDS011;40825;52.270;20.984;2023-11-21T01:46:17;22.90;;;11.10;;
54923;SDS011;40825;52.270;20.984;2023-11-21T01:49:55;25.30;;;11.50;;
54923;SDS011;40825;52.270;20.984;2023-11-21T01:57:17;21.60;;;11.10;;
54923;SDS011;40825;52.270;20.984;2023-11-21T02:51:32;22.60;;;9.60;;
54923;SDS011;40825;52.270;20.984;2023-11-21T03:42:26;21.40;;;10.30;;
54923;SDS011;40825;52.270;20.984;2023-11-21T03:45:58;22.20;;;9.10;;
54923;SDS011;40825;52.270;20.984;2023-11-21T04:00:49;23.10;;;9.60;;
54923;SDS011;40825;52.270;20.984;2023-11-21T04:08:02;22.40;;;10.80;;
54923;SDS011;40825;52.270;20.984;2023-11-21T04:22:48;23.50;;;9.60;;
54923;SDS011;40825;52.270;20.984;2023-11-21T04:33:44;19.00;;;8.20;;
54923;SDS011;40825;52.270;20.984;2023-11-21T04:40:45;18.30;;;7.40;;
54923;SDS011;40825;52.270;20.984;2023-11-21T04:44:35;18.30;;;7.60;;
54923;SDS011;40825;52.270;20.984;2023-11-21T04:47:50;13.20;;;5.90;;
54923;SDS011;40825;52.270;20.984;2023-11-21T05:10:00;18.00;;;8.80;;
54923;SDS011;40825;52.270;20.984;2023-11-21T05:21:01;13.70;;;7.40;;
54923;SDS011;40825;52.270;20.984;2023-11-21T05:41:27;16.40;;;6.90;;
54923;SDS011;40825;52.270;20.984;2023-11-21T06:13:43;15.10;;;6.90;;
54923;SDS011;40825;52.270;20.984;2023-11-21T06:28:06;15.90;;;7.30;;
54923;SDS011;40825;52.270;20.984;2023-11-21T06:38:54;15.20;;;7.10;;
54923;SDS011;40825;52.270;20.984;2023-11-21T06:53:36;15.30;;;7.60;;
54923;SDS011;40825;52.270;20.984;2023-11-21T06:57:12;17.20;;;7.90;;
54923;SDS011;40825;52.270;20.984;2023-11-21T07:00:12;19.00;;;8.70;;
54923;SDS011;40825;52.270;20.984;2023-11-21T07:07:32;12.10;;;5.20;;
54923;SDS011;40825;52.270;20.984;2023-11-21T07:28:52;16.90;;;8.00;;
54923;SDS011;40825;52.270;20.984;2023-11-21T07:31:41;16.60;;;7.50;;
54923;SDS011;40825;52.270;20.984;2023-11-21T07:34:22;16.70;;;8.00;;
54923;SDS011;40825;52.270;20.984;2023-11-21T07:37:55;19.10;;;8.40;;
54923;SDS011;40825;52.270;20.984;2023-11-21T07:40:49;18.80;;;8.20;;
54923;SDS011;40825;52.270;20.984;2023-11-21T07:43:56;16.70;;;6.60;;
54923;SDS011;40825;52.270;20.984;2023-11-21T07:58:34;15.40;;;7.40;;
54923;SDS011;40825;52.270;20.984;2023-11-21T08:02:01;18.50;;;8.20;;
54923;SDS011;40825;52.270;20.984;2023-11-21T08:04:56;17.00;;;7.30;;
54923;SDS011;40825;52.270;20.984;2023-11-21T08:07:50;19.60;;;8.20;;
54923;SDS011;40825;52.270;20.984;2023-11-21T08:12:47;19.70;;;8.10;;
54923;SDS011;40825;52.270;20.984;2023-11-21T08:15:19;14.90;;;6.90;;
54923;SDS011;40825;52.270;20.984;2023-11-21T08:17:54;17.70;;;9.20;;
54923;SDS011;40825;52.270;20.984;2023-11-21T08:20:23;13.80;;;6.20;;
54923;SDS011;40825;52.270;20.984;2023-11-21T08:22:53;15.00;;;6.60;;
54923;SDS011;40825;52.270;20.984;2023-11-21T08:25:26;17.60;;;7.90;;
54923;SDS011;40825;52.270;20.984;2023-11-21T08:31:28;17.90;;;8.20;;
54923;SDS011;40825;52.270;20.984;2023-11-21T08:34:17;19.10;;;8.80;;
54923;SDS011;40825;52.270;20.984;2023-11-21T08:36:54;19.90;;;9.20;;
54923;SDS011;40825;52.270;20.984;2023-11-21T08:39:22;18.30;;;8.30;;
54923;SDS011;40825;52.270;20.984;2023-11-21T08:41:52;17.90;;;7.40;;
54923;SDS011;40825;52.270;20.984;2023-11-21T08:44:26;16.50;;;7.70;;
54923;SDS011;40825;52.270;20.984;2023-11-21T08:46:57;19.90;;;8.90;;
54923;SDS011;40825;52.270;20.984;2023-11-21T08:52:14;13.80;;;6.60;;
54923;SDS011;40825;52.270;20.984;2023-11-21T08:54:42;19.80;;;8.80;;
54923;SDS011;40825;52.270;20.984;2023-11-21T09:03:08;17.60;;;8.10;;
54923;SDS011;40825;52.270;20.984;2023-11-21T09:05:37;16.10;;;7.80;;
54923;SDS011;40825;52.270;20.984;2023-11-21T09:08:04;18.40;;;8.90;;
54923;SDS011;40825;52.270;20.984;2023-11-21T09:10:30;15.20;;;8.40;;
54923;SDS011;40825;52.270;20.984;2023-11-21T09:13:06;19.50;;;8.70;;
54923;SDS011;40825;52.270;20.984;2023-11-21T09:16:03;15.50;;;7.40;;
54923;SDS011;40825;52.270;20.984;2023-11-21T09:18:32;20.10;;;8.20;;
54923;SDS011;40825;52.270;20.984;2023-11-21T09:21:06;20.10;;;8.60;;
54923;SDS011;40825;52.270;20.984;2023-11-21T09:24:01;16.90;;;6.90;;
54923;SDS011;40825;52.270;20.984;2023-11-21T09:26:49;19.00;;;9.30;;
54923;SDS011;40825;52.270;20.984;2023-11-21T09:29:15;17.10;;;8.00;;
54923;SDS011;40825;52.270;20.984;2023-11-21T09:31:41;17.00;;;8.10;;
54923;SDS011;40825;52.270;20.984;2023-11-21T09:34:10;15.40;;;7.10;;
54923;SDS011;40825;52.270;20.984;2023-11-21T09:36:39;16.80;;;8.90;;
54923;SDS011;40825;52.270;20.984;2023-11-21T09:39:37;17.00;;;7.40;;
54923;SDS011;40825;52.270;20.984;2023-11-21T09:42:30;17.10;;;7.40;;
54923;SDS011;40825;52.270;20.984;2023-11-21T09:45:15;17.30;;;7.60;;
54923;SDS011;40825;52.270;20.984;2023-11-21T09:47:44;15.40;;;6.80;;
54923;SDS011;40825;52.270;20.984;2023-11-21T09:50:16;17.60;;;8.60;;
54923;SDS011;40825;52.270;20.984;2023-11-21T09:52:54;16.60;;;7.30;;
54923;SDS011;40825;52.270;20.984;2023-11-21T09:59:05;19.30;;;7.70;;
54923;SDS011;40825;52.270;20.984;2023-11-21T10:02:09;14.60;;;8.30;;
54923;SDS011;40825;52.270;20.984;2023-11-21T10:05:03;18.90;;;7.70;;
54923;SDS011;40825;52.270;20.984;2023-11-21T10:07:56;15.90;;;8.40;;
54923;SDS011;40825;52.270;20.984;2023-11-21T10:10:54;16.80;;;7.00;;
54923;SDS011;40825;52.270;20.984;2023-11-21T10:13:21;20.70;;;8.40;;
54923;SDS011;40825;52.270;20.984;2023-11-21T10:15:51;19.60;;;7.70;;
54923;SDS011;40825;52.270;20.984;2023-11-21T10:18:18;18.10;;;7.90;;
54923;SDS011;40825;52.270;20.984;2023-11-21T10:20:46;20.10;;;9.40;;
54923;SDS011;40825;52.270;20.984;2023-11-21T10:23:51;19.20;;;8.70;;
54923;SDS011;40825;52.270;20.984;2023-11-21T10:26:19;21.70;;;8.90;;
54923;SDS011;40825;52.270;20.984;2023-11-21T10:28:57;18.40;;;8.40;;
54923;SDS011;40825;52.270;20.984;2023-11-21T10:31:27;17.20;;;7.90;;
54923;SDS011;40825;52.270;20.984;2023-11-21T10:34:10;20.50;;;7.80;;
54923;SDS011;40825;52.270;20.984;2023-11-21T10:36:41;16.40;;;8.00;;
54923;SDS011;40825;52.270;20.984;2023-11-21T10:39:18;17.90;;;8.50;;
54923;SDS011;40825;52.270;20.984;2023-11-21T10:41:56;18.20;;;9.20;;
54923;SDS011;40825;52.270;20.984;2023-11-21T10:44:27;17.80;;;7.70;;
54923;SDS011;40825;52.270;20.984;2023-11-21T10:46:55;18.10;;;7.50;;
54923;SDS011;40825;52.270;20.984;2023-11-21T10:50:19;22.30;;;9.10;;
54923;SDS011;40825;52.270;20.984;2023-11-21T10:52:45;21.30;;;9.10;;
54923;SDS011;40825;52.270;20.984;2023-11-21T10:55:16;19.70;;;8.40;;
54923;SDS011;40825;52.270;20.984;2023-11-21T10:57:47;18.80;;;9.30;;
54923;SDS011;40825;52.270;20.984;2023-11-21T11:00:15;21.80;;;9.60;;
54923;SDS011;40825;52.270;20.984;2023-11-21T11:02:42;19.50;;;8.20;;
54923;SDS011;40825;52.270;20.984;2023-11-21T11:05:08;17.70;;;9.30;;
54923;SDS011;40825;52.270;20.984;2023-11-21T11:07:37;16.70;;;8.40;;
54923;SDS011;40825;52.270;20.984;2023-11-21T11:10:32;16.80;;;7.00;;
54923;SDS011;40825;52.270;20.984;2023-11-21T11:13:28;17.30;;;7.80;;
54923;SDS011;40825;52.270;20.984;2023-11-21T11:18:35;21.40;;;9.60;;
54923;SDS011;40825;52.270;20.984;2023-11-21T11:21:07;19.30;;;9.00;;
54923;SDS011;40825;52.270;20.984;2023-11-21T11:47:02;15.40;;;7.10;;
54923;SDS011;40825;52.270;20.984;2023-11-21T11:49:39;17.40;;;8.40;;
54923;SDS011;40825;52.270;20.984;2023-11-21T12:00:15;19.00;;;9.60;;
54923;SDS011;40825;52.270;20.984;2023-11-21T12:03:41;19.30;;;8.40;;
54923;SDS011;40825;52.270;20.984;2023-11-21T12:09:21;17.30;;;7.40;;
54923;SDS011;40825;52.270;20.984;2023-11-21T12:11:50;18.40;;;8.70;;
54923;SDS011;40825;52.270;20.984;2023-11-21T12:18:46;14.70;;;5.90;;
54923;SDS011;40825;52.270;20.984;2023-11-21T12:22:25;20.20;;;9.20;;
54923;SDS011;40825;52.270;20.984;2023-11-21T12:25:00;18.30;;;8.70;;
54923;SDS011;40825;52.270;20.984;2023-11-21T12:27:28;16.80;;;8.20;;
54923;SDS011;40825;52.270;20.984;2023-11-21T12:30:07;17.70;;;9.10;;
54923;SDS011;40825;52.270;20.984;2023-11-21T12:32:41;21.90;;;9.60;;
54923;SDS011;40825;52.270;20.984;2023-11-21T12:35:15;18.40;;;10.30;;
54923;SDS011;40825;52.270;20.984;2023-11-21T12:40:14;21.70;;;9.70;;
54923;SDS011;40825;52.270;20.984;2023-11-21T12:46:13;18.70;;;9.40;;
54923;SDS011;40825;52.270;20.984;2023-11-21T12:48:44;20.50;;;9.20;;
54923;SDS011;40825;52.270;20.984;2023-11-21T12:51:13;19.90;;;9.30;;
54923;SDS011;40825;52.270;20.984;2023-11-21T12:53:44;18.70;;;8.90;;
54923;SDS011;40825;52.270;20.984;2023-11-21T12:56:24;21.80;;;9.50;;
54923;SDS011;40825;52.270;20.984;2023-11-21T12:59:38;18.20;;;8.10;;
54923;SDS011;40825;52.270;20.984;2023-11-21T13:03:02;20.80;;;9.40;;
54923;SDS011;40825;52.270;20.984;2023-11-21T13:06:32;17.10;;;8.60;;
54923;SDS011;40825;52.270;20.984;2023-11-21T13:09:09;18.30;;;8.40;;
54923;SDS011;40825;52.270;20.984;2023-11-21T13:11:41;19.40;;;8.80;;
54923;SDS011;40825;52.270;20.984;2023-11-21T13:14:10;20.40;;;9.60;;
54923;SDS011;40825;52.270;20.984;2023-11-21T13:16:39;17.00;;;7.80;;
54923;SDS011;40825;52.270;20.984;2023-11-21T13:19:16;20.60;;;9.40;;
54923;SDS011;40825;52.270;20.984;2023-11-21T13:25:39;17.80;;;8.10;;
54923;SDS011;40825;52.270;20.984;2023-11-21T13:28:11;17.10;;;7.80;;
54923;SDS011;40825;52.270;20.984;2023-11-21T13:52:04;20.30;;;9.10;;
54923;SDS011;40825;52.270;20.984;2023-11-21T13:55:34;18.90;;;9.80;;
54923;SDS011;40825;52.270;20.984;2023-11-21T14:05:22;17.10;;;7.50;;
54923;SDS011;40825;52.270;20.984;2023-11-21T14:08:44;17.30;;;8.50;;
54923;SDS011;40825;52.270;20.984;2023-11-21T14:12:16;20.00;;;9.80;;
54923;SDS011;40825;52.270;20.984;2023-11-21T14:15:08;19.10;;;9.30;;
54923;SDS011;40825;52.270;20.984;2023-11-21T14:17:44;20.00;;;9.90;;
54923;SDS011;40825;52.270;20.984;2023-11-21T14:20:10;15.60;;;6.30;;
54923;SDS011;40825;52.270;20.984;2023-11-21T14:23:03;22.30;;;11.00;;
54923;SDS011;40825;52.270;20.984;2023-11-21T14:25:41;20.50;;;9.60;;
54923;SDS011;40825;52.270;20.984;2023-11-21T14:28:24;19.80;;;9.60;;
54923;SDS011;40825;52.270;20.984;2023-11-21T14:30:52;19.60;;;9.90;;
54923;SDS011;40825;52.270;20.984;2023-11-21T14:33:18;21.80;;;10.90;;
54923;SDS011;40825;52.270;20.984;2023-11-21T14:35:44;23.20;;;12.10;;
54923;SDS011;40825;52.270;20.984;2023-11-21T14:38:10;16.60;;;8.30;;
54923;SDS011;40825;52.270;20.984;2023-11-21T14:40:41;23.20;;;11.00;;
54923;SDS011;40825;52.270;20.984;2023-11-21T14:43:09;21.50;;;11.00;;
54923;SDS011;40825;52.270;20.984;2023-11-21T14:49:34;19.40;;;10.40;;
54923;SDS011;40825;52.270;20.984;2023-11-21T14:55:24;21.90;;;10.90;;
54923;SDS011;40825;52.270;20.984;2023-11-21T14:57:50;23.70;;;10.20;;
54923;SDS011;40825;52.270;20.984;2023-11-21T15:00:17;21.30;;;10.20;;
54923;SDS011;40825;52.270;20.984;2023-11-21T15:06:50;23.80;;;10.70;;
54923;SDS011;40825;52.270;20.984;2023-11-21T15:09:18;21.60;;;9.80;;
54923;SDS011;40825;52.270;20.984;2023-11-21T15:11:43;19.00;;;9.50;;
54923;SDS011;40825;52.270;20.984;2023-11-21T15:14:09;20.30;;;9.50;;
54923;SDS011;40825;52.270;20.984;2023-11-21T15:16:38;21.20;;;10.90;;
54923;SDS011;40825;52.270;20.984;2023-11-21T15:19:10;22.10;;;8.70;;
54923;SDS011;40825;52.270;20.984;2023-11-21T15:21:37;20.10;;;8.70;;
54923;SDS011;40825;52.270;20.984;2023-11-21T15:24:03;22.40;;;8.50;;
54923;SDS011;40825;52.270;20.984;2023-11-21T15:26:29;18.70;;;8.50;;
54923;SDS011;40825;52.270;20.984;2023-11-21T15:28:55;17.50;;;7.40;;
54923;SDS011;40825;52.270;20.984;2023-11-21T15:45:22;20.60;;;10.30;;
54923;SDS011;40825;52.270;20.984;2023-11-21T15:47:51;20.70;;;9.60;;
54923;SDS011;40825;52.270;20.984;2023-11-21T15:50:18;19.40;;;9.50;;
54923;SDS011;40825;52.270;20.984;2023-11-21T15:52:44;18.50;;;9.20;;
54923;SDS011;40825;52.270;20.984;2023-11-21T15:55:10;19.10;;;9.60;;
54923;SDS011;40825;52.270;20.984;2023-11-21T15:57:36;25.30;;;10.10;;
54923;SDS011;40825;52.270;20.984;2023-11-21T16:00:02;23.30;;;9.90;;
54923;SDS011;40825;52.270;20.984;2023-11-21T16:02:33;18.20;;;8.30;;
54923;SDS011;40825;52.270;20.984;2023-11-21T16:04:59;21.60;;;10.00;;
54923;SDS011;40825;52.270;20.984;2023-11-21T16:07:24;18.70;;;8.00;;
54923;SDS011;40825;52.270;20.984;2023-11-21T16:09:50;19.80;;;10.10;;
54923;SDS011;40825;52.270;20.984;2023-11-21T16:12:16;25.60;;;10.30;;
54923;SDS011;40825;52.270;20.984;2023-11-21T16:14:42;20.80;;;8.50;;
54923;SDS011;40825;52.270;20.984;2023-11-21T16:17:10;20.40;;;9.60;;
54923;SDS011;40825;52.270;20.984;2023-11-21T16:19:37;21.40;;;10.00;;
54923;SDS011;40825;52.270;20.984;2023-11-21T16:22:04;22.40;;;9.80;;
54923;SDS011;40825;52.270;20.984;2023-11-21T16:24:29;24.50;;;8.80;;
54923;SDS011;40825;52.270;20.984;2023-11-21T16:26:55;19.40;;;8.60;;
54923;SDS011;40825;52.270;20.984;2023-11-21T16:29:21;21.30;;;8.80;;
54923;SDS011;40825;52.270;20.984;2023-11-21T16:31:47;18.10;;;8.50;;
54923;SDS011;40825;52.270;20.984;2023-11-21T16:34:16;18.80;;;8.90;;
54923;SDS011;40825;52.270;20.984;2023-11-21T16:36:43;20.00;;;9.00;;
54923;SDS011;40825;52.270;20.984;2023-11-21T16:39:09;21.60;;;8.50;;
54923;SDS011;40825;52.270;20.984;2023-11-21T16:41:37;19.50;;;8.70;;
54923;SDS011;40825;52.270;20.984;2023-11-21T16:44:03;22.80;;;9.20;;
54923;SDS011;40825;52.270;20.984;2023-11-21T16:46:29;18.60;;;8.60;;
54923;SDS011;40825;52.270;20.984;2023-11-21T16:48:54;21.00;;;8.90;;
54923;SDS011;40825;52.270;20.984;2023-11-21T16:51:20;19.80;;;9.50;;
54923;SDS011;40825;52.270;20.984;2023-11-21T16:53:45;20.00;;;8.30;;
54923;SDS011;40825;52.270;20.984;2023-11-21T16:56:11;21.80;;;10.00;;
54923;SDS011;40825;52.270;20.984;2023-11-21T16:58:37;13.70;;;5.20;;
54923;SDS011;40825;52.270;20.984;2023-11-21T17:01:02;20.60;;;9.10;;
54923;SDS011;40825;52.270;20.984;2023-11-21T17:03:28;21.90;;;9.30;;
54923;SDS011;40825;52.270;20.984;2023-11-21T17:06:07;17.70;;;7.50;;
54923;SDS011;40825;52.270;20.984;2023-11-21T17:08:34;20.90;;;8.70;;
54923;SDS011;40825;52.270;20.984;2023-11-21T17:11:00;22.60;;;10.50;;
54923;SDS011;40825;52.270;20.984;2023-11-21T17:13:25;13.60;;;6.50;;
54923;SDS011;40825;52.270;20.984;2023-11-21T17:15:51;22.00;;;9.40;;
54923;SDS011;40825;52.270;20.984;2023-11-21T17:18:16;18.90;;;8.10;;
54923;SDS011;40825;52.270;20.984;2023-11-21T17:20:43;17.20;;;7.40;;
54923;SDS011;40825;52.270;20.984;2023-11-21T17:23:08;20.50;;;9.70;;
54923;SDS011;40825;52.270;20.984;2023-11-21T17:25:35;20.80;;;9.30;;
54923;SDS011;40825;52.270;20.984;2023-11-21T17:28:02;21.20;;;9.20;;
54923;SDS011;40825;52.270;20.984;2023-11-21T17:30:28;24.00;;;11.00;;
54923;SDS011;40825;52.270;20.984;2023-11-21T17:32:54;20.10;;;9.20;;
54923;SDS011;40825;52.270;20.984;2023-11-21T17:35:20;21.90;;;9.80;;
54923;SDS011;40825;52.270;20.984;2023-11-21T17:37:46;24.80;;;10.20;;
54923;SDS011;40825;52.270;20.984;2023-11-21T17:40:12;19.90;;;8.30;;
54923;SDS011;40825;52.270;20.984;2023-11-21T17:42:39;19.80;;;8.60;;
54923;SDS011;40825;52.270;20.984;2023-11-21T17:45:06;19.50;;;8.50;;
54923;SDS011;40825;52.270;20.984;2023-11-21T17:47:32;20.60;;;8.10;;
54923;SDS011;40825;52.270;20.984;2023-11-21T17:49:58;16.30;;;6.20;;
54923;SDS011;40825;52.270;20.984;2023-11-21T17:52:23;21.70;;;8.50;;
54923;SDS011;40825;52.270;20.984;2023-11-21T17:54:49;20.50;;;9.20;;
54923;SDS011;40825;52.270;20.984;2023-11-21T17:57:15;17.00;;;7.30;;
54923;SDS011;40825;52.270;20.984;2023-11-21T17:59:41;18.70;;;7.90;;
54923;SDS011;40825;52.270;20.984;2023-11-21T18:02:10;13.90;;;6.20;;
54923;SDS011;40825;52.270;20.984;2023-11-21T18:04:36;17.70;;;7.00;;
54923;SDS011;40825;52.270;20.984;2023-11-21T18:07:01;17.10;;;7.00;;
54923;SDS011;40825;52.270;20.984;2023-11-21T18:09:29;17.60;;;7.60;;
54923;SDS011;40825;52.270;20.984;2023-11-21T18:11:55;15.80;;;6.60;;
54923;SDS011;40825;52.270;20.984;2023-11-21T18:14:21;20.50;;;7.80;;
54923;SDS011;40825;52.270;20.984;2023-11-21T18:16:46;8.70;;;5.10;;
54923;SDS011;40825;52.270;20.984;2023-11-21T18:19:12;16.00;;;6.90;;
54923;SDS011;40825;52.270;20.984;2023-11-21T18:21:37;18.00;;;7.40;;
54923;SDS011;40825;52.270;20.984;2023-11-21T18:24:05;18.40;;;7.10;;
54923;SDS011;40825;52.270;20.984;2023-11-21T18:26:31;17.40;;;8.10;;
54923;SDS011;40825;52.270;20.984;2023-11-21T18:28:57;20.90;;;8.30;;
54923;SDS011;40825;52.270;20.984;2023-11-21T18:31:22;16.00;;;7.00;;
54923;SDS011;40825;52.270;20.984;2023-11-21T18:33:48;19.40;;;8.50;;
54923;SDS011;40825;52.270;20.984;2023-11-21T18:36:13;16.90;;;7.30;;
54923;SDS011;40825;52.270;20.984;2023-11-21T18:38:39;16.30;;;6.50;;
54923;SDS011;40825;52.270;20.984;2023-11-21T18:41:05;15.50;;;6.70;;
54923;SDS011;40825;52.270;20.984;2023-11-21T18:43:31;20.10;;;6.70;;
54923;SDS011;40825;52.270;20.984;2023-11-21T18:45:56;17.50;;;7.40;;
54923;SDS011;40825;52.270;20.984;2023-11-21T18:48:22;16.70;;;7.80;;
54923;SDS011;40825;52.270;20.984;2023-11-21T18:50:47;17.30;;;7.30;;
54923;SDS011;40825;52.270;20.984;2023-11-21T18:53:16;14.80;;;6.70;;
54923;SDS011;40825;52.270;20.984;2023-11-21T18:55:42;15.60;;;6.60;;
54923;SDS011;40825;52.270;20.984;2023-11-21T18:58:09;16.90;;;6.90;;
54923;SDS011;40825;52.270;20.984;2023-11-21T19:00:35;16.30;;;7.30;;
54923;SDS011;40825;52.270;20.984;2023-11-21T19:03:02;16.20;;;6.90;;
54923;SDS011;40825;52.270;20.984;2023-11-21T19:05:28;12.50;;;6.20;;
54923;SDS011;40825;52.270;20.984;2023-11-21T19:07:53;15.80;;;6.40;;
54923;SDS011;40825;52.270;20.984;2023-11-21T19:10:19;15.30;;;7.20;;
54923;SDS011;40825;52.270;20.984;2023-11-21T19:12:44;16.40;;;6.20;;
54923;SDS011;40825;52.270;20.984;2023-11-21T19:15:10;13.00;;;5.70;;
54923;SDS011;40825;52.270;20.984;2023-11-21T19:17:38;14.30;;;5.40;;
54923;SDS011;40825;52.270;20.984;2023-11-21T19:20:05;11.90;;;5.80;;
54923;SDS011;40825;52.270;20.984;2023-11-21T19:22:33;13.10;;;5.70;;
54923;SDS011;40825;52.270;20.984;2023-11-21T19:25:02;14.20;;;5.20;;
54923;SDS011;40825;52.270;20.984;2023-11-21T19:27:30;14.80;;;6.10;;
54923;SDS011;40825;52.270;20.984;2023-11-21T19:29:58;12.50;;;5.10;;
54923;SDS011;40825;52.270;20.984;2023-11-21T19:32:23;13.00;;;5.10;;
54923;SDS011;40825;52.270;20.984;2023-11-21T19:34:49;16.80;;;7.50;;
54923;SDS011;40825;52.270;20.984;2023-11-21T19:37:15;14.30;;;5.40;;
54923;SDS011;40825;52.270;20.984;2023-11-21T19:39:40;13.00;;;5.40;;
54923;SDS011;40825;52.270;20.984;2023-11-21T19:42:06;13.00;;;5.10;;
54923;SDS011;40825;52.270;20.984;2023-11-21T19:44:31;13.20;;;6.00;;
54923;SDS011;40825;52.270;20.984;2023-11-21T19:46:57;13.40;;;5.30;;
54923;SDS011;40825;52.270;20.984;2023-11-21T19:49:23;16.10;;;6.10;;
54923;SDS011;40825;52.270;20.984;2023-11-21T19:51:49;12.50;;;4.90;;
54923;SDS011;40825;52.270;20.984;2023-11-21T19:54:15;14.50;;;5.40;;
54923;SDS011;40825;52.270;20.984;2023-11-21T19:56:40;13.40;;;5.90;;
54923;SDS011;40825;52.270;20.984;2023-11-21T19:59:07;13.50;;;5.20;;
54923;SDS011;40825;52.270;20.984;2023-11-21T20:01:33;13.70;;;6.50;;
54923;SDS011;40825;52.270;20.984;2023-11-21T20:03:59;12.80;;;5.30;;
54923;SDS011;40825;52.270;20.984;2023-11-21T20:06:25;11.80;;;4.70;;
54923;SDS011;40825;52.270;20.984;2023-11-21T20:08:50;10.10;;;4.70;;
54923;SDS011;40825;52.270;20.984;2023-11-21T20:11:20;12.20;;;5.10;;
54923;SDS011;40825;52.270;20.984;2023-11-21T20:13:49;13.60;;;5.40;;
54923;SDS011;40825;52.270;20.984;2023-11-21T20:16:15;11.90;;;5.00;;
54923;SDS011;40825;52.270;20.984;2023-11-21T20:18:45;13.80;;;5.70;;
54923;SDS011;40825;52.270;20.984;2023-11-21T20:21:11;12.30;;;4.80;;
54923;SDS011;40825;52.270;20.984;2023-11-21T20:23:36;11.60;;;5.70;;
54923;SDS011;40825;52.270;20.984;2023-11-21T20:26:03;12.30;;;5.00;;
54923;SDS011;40825;52.270;20.984;2023-11-21T20:28:29;14.20;;;5.00;;
54923;SDS011;40825;52.270;20.984;2023-11-21T20:30:56;10.40;;;4.40;;
54923;SDS011;40825;52.270;20.984;2023-11-21T20:33:22;13.00;;;4.30;;
54923;SDS011;40825;52.270;20.984;2023-11-21T20:35:48;11.30;;;4.70;;
54923;SDS011;40825;52.270;20.984;2023-11-21T20:38:14;9.90;;;3.80;;
54923;SDS011;40825;52.270;20.984;2023-11-21T20:40:40;9.10;;;4.00;;
54923;SDS011;40825;52.270;20.984;2023-11-21T20:43:05;9.90;;;4.20;;
54923;SDS011;40825;52.270;20.984;2023-11-21T20:45:31;10.60;;;4.70;;
54923;SDS011;40825;52.270;20.984;2023-11-21T20:47:58;10.60;;;4.20;;
54923;SDS011;40825;52.270;20.984;2023-11-21T20:50:24;14.50;;;5.40;;
54923;SDS011;40825;52.270;20.984;2023-11-21T20:52:50;14.50;;;5.10;;
54923;SDS011;40825;52.270;20.984;2023-11-21T20:55:16;11.70;;;4.90;;
54923;SDS011;40825;52.270;20.984;2023-11-21T20:57:42;10.30;;;4.90;;
54923;SDS011;40825;52.270;20.984;2023-11-21T21:00:07;11.80;;;5.50;;
54923;SDS011;40825;52.270;20.984;2023-11-21T21:02:37;13.10;;;5.10;;
54923;SDS011;40825;52.270;20.984;2023-11-21T21:05:04;13.80;;;5.00;;
54923;SDS011;40825;52.270;20.984;2023-11-21T21:07:31;12.60;;;5.40;;
54923;SDS011;40825;52.270;20.984;2023-11-21T21:09:57;12.70;;;5.10;;
54923;SDS011;40825;52.270;20.984;2023-11-21T21:12:24;15.50;;;6.20;;
54923;SDS011;40825;52.270;20.984;2023-11-21T21:14:50;11.40;;;4.50;;
54923;SDS011;40825;52.270;20.984;2023-11-21T21:17:17;6.30;;;2.40;;
54923;SDS011;40825;52.270;20.984;2023-11-21T21:19:43;15.20;;;5.50;;
54923;SDS011;40825;52.270;20.984;2023-11-21T21:22:08;13.70;;;4.60;;
54923;SDS011;40825;52.270;20.984;2023-11-21T21:24:34;15.20;;;6.00;;
54923;SDS011;40825;52.270;20.984;2023-11-21T21:26:59;14.70;;;4.70;;
54923;SDS011;40825;52.270;20.984;2023-11-21T21:29:25;11.80;;;4.60;;
54923;SDS011;40825;52.270;20.984;2023-11-21T21:31:52;8.70;;;3.60;;
54923;SDS011;40825;52.270;20.984;2023-11-21T21:34:17;12.60;;;5.80;;
54923;SDS011;40825;52.270;20.984;2023-11-21T21:36:43;13.00;;;5.20;;
54923;SDS011;40825;52.270;20.984;2023-11-21T21:39:10;12.40;;;4.70;;
54923;SDS011;40825;52.270;20.984;2023-11-21T21:44:04;11.90;;;4.10;;
54923;SDS011;40825;52.270;20.984;2023-11-21T21:46:30;11.30;;;3.80;;
54923;SDS011;40825;52.270;20.984;2023-11-21T21:48:56;11.50;;;5.40;;
54923;SDS011;40825;52.270;20.984;2023-11-21T21:51:22;14.20;;;5.40;;
54923;SDS011;40825;52.270;20.984;2023-11-21T21:53:47;12.90;;;4.90;;
54923;SDS011;40825;52.270;20.984;2023-11-21T21:56:18;10.40;;;4.30;;
54923;SDS011;40825;52.270;20.984;2023-11-21T21:58:44;12.90;;;4.40;;
54923;SDS011;40825;52.270;20.984;2023-11-21T22:01:10;9.50;;;4.20;;
54923;SDS011;40825;52.270;20.984;2023-11-21T22:03:35;5.30;;;1.90;;
54923;SDS011;40825;52.270;20.984;2023-11-21T22:06:01;12.30;;;4.70;;
54923;SDS011;40825;52.270;20.984;2023-11-21T22:08:27;14.10;;;5.90;;